Time;durP1;ratioP1;P1;durP2;ratioP2;P2;SDS_P1;SDS_P2;PMS_P1;PMS_P2;Temp;Humidity;BMP_temperature;BMP_pressure;BME280_temperature;BME280_humidity;BME280_pressure;Samples;Min_cycle;Max_cycle;Signal;HPM_P1;HPM_P2
2023/07/18 00:00:25;;;;;;;9.27;2.80;;;19.00;90.50;;;;;;4936896;29;20046;-79
2023/07/18 00:02:51;;;;;;;6.47;2.47;;;19.00;90.60;;;;;;4956557;28;20023;-79
2023/07/18 00:05:17;;;;;;;6.82;2.67;;;18.90;90.60;;;;;;4957261;28;20030;-79
2023/07/18 00:07:44;;;;;;;8.00;3.33;;;18.90;90.70;;;;;;4960377;28;20031;-80
2023/07/18 00:10:11;;;;;;;5.85;2.55;;;18.90;90.80;;;;;;4955843;28;20096;-79
2023/07/18 00:12:38;;;;;;;6.07;2.33;;;18.80;90.80;;;;;;4958439;28;20035;-78
2023/07/18 00:15:05;;;;;;;4.75;2.95;;;18.80;90.90;;;;;;4958406;28;20503;-79
2023/07/18 00:17:32;;;;;;;4.38;2.22;;;18.80;90.90;;;;;;4955484;28;20059;-78
2023/07/18 00:19:59;;;;;;;5.80;2.50;;;18.80;91.00;;;;;;4955711;28;20028;-78
2023/07/18 00:22:25;;;;;;;3.08;2.33;;;18.70;91.00;;;;;;4939335;28;20069;-80
2023/07/18 00:24:50;;;;;;;7.15;2.90;;;18.80;91.10;;;;;;4956400;28;20027;-79
2023/07/18 00:27:16;;;;;;;6.78;2.40;;;18.70;91.10;;;;;;4957951;28;20031;-79
2023/07/18 00:29:42;;;;;;;5.82;2.42;;;18.70;91.20;;;;;;4957043;28;20035;-79
2023/07/18 00:32:08;;;;;;;5.03;2.95;;;18.70;91.20;;;;;;4956722;29;20039;-79
2023/07/18 00:34:34;;;;;;;3.30;2.22;;;18.60;91.20;;;;;;4954215;28;20038;-80
2023/07/18 00:36:59;;;;;;;4.20;2.13;;;18.60;91.20;;;;;;4955795;28;20053;-80
2023/07/18 00:39:25;;;;;;;3.78;2.70;;;18.60;91.20;;;;;;4938550;28;20086;-79
2023/07/18 00:41:52;;;;;;;4.22;2.45;;;18.60;91.30;;;;;;4951257;28;20045;-80
2023/07/18 00:44:17;;;;;;;5.13;2.60;;;18.60;91.20;;;;;;4954818;28;20026;-79
2023/07/18 00:46:43;;;;;;;6.55;2.83;;;18.50;91.20;;;;;;4953642;28;20023;-78
2023/07/18 00:49:09;;;;;;;5.43;2.85;;;18.40;91.30;;;;;;4955609;28;20027;-80
2023/07/18 00:51:35;;;;;;;4.72;2.50;;;18.40;91.30;;;;;;4956632;28;20035;-78
2023/07/18 00:54:01;;;;;;;5.20;2.38;;;18.40;91.40;;;;;;4950455;28;20043;-79
2023/07/18 00:56:27;;;;;;;2.90;1.90;;;18.30;91.40;;;;;;4957169;28;20039;-86
2023/07/18 00:58:54;;;;;;;7.03;2.80;;;18.30;91.50;;;;;;4937159;29;20078;-86
2023/07/18 01:01:20;;;;;;;4.13;2.10;;;18.30;91.50;;;;;;4954272;29;20106;-86
2023/07/18 01:03:46;;;;;;;6.03;2.55;;;18.30;91.60;;;;;;4938433;29;20023;-87
2023/07/18 01:06:12;;;;;;;5.60;2.58;;;18.20;91.60;;;;;;4938994;29;20123;-86
2023/07/18 01:08:39;;;;;;;6.10;2.42;;;18.20;91.70;;;;;;4939375;29;20036;-86
2023/07/18 01:11:08;;;;;;;7.35;2.72;;;18.20;91.70;;;;;;4941676;29;20028;-86
2023/07/18 01:13:34;;;;;;;5.20;2.33;;;18.20;91.70;;;;;;4940618;29;20024;-86
2023/07/18 01:16:01;;;;;;;3.10;2.05;;;18.20;91.80;;;;;;4921234;29;20051;-86
2023/07/18 01:18:26;;;;;;;4.57;2.22;;;18.10;92.10;;;;;;4938852;28;20040;-86
2023/07/18 01:20:53;;;;;;;4.43;2.22;;;18.10;91.80;;;;;;4922375;29;20036;-86
2023/07/18 01:23:21;;;;;;;4.72;1.95;;;18.10;91.70;;;;;;4943198;29;20371;-86
2023/07/18 01:25:46;;;;;;;4.00;2.17;;;18.00;91.60;;;;;;4961054;28;20122;-86
2023/07/18 01:28:12;;;;;;;4.60;2.00;;;18.00;91.70;;;;;;4941205;29;20089;-86
2023/07/18 01:30:38;;;;;;;5.65;2.30;;;18.00;91.60;;;;;;4940671;28;20027;-86
2023/07/18 01:33:04;;;;;;;2.80;1.70;;;18.00;91.70;;;;;;4939927;29;20023;-86
2023/07/18 01:35:30;;;;;;;4.88;1.65;;;17.90;91.70;;;;;;4937930;29;20032;-86
2023/07/18 01:37:57;;;;;;;8.27;1.88;;;17.90;91.70;;;;;;4941171;29;20035;-86
2023/07/18 01:40:26;;;;;;;3.72;1.92;;;17.90;91.80;;;;;;4940735;29;20027;-86
2023/07/18 01:42:53;;;;;;;3.83;2.28;;;17.80;91.80;;;;;;4940273;29;20016;-86
2023/07/18 01:45:27;;;;;;;4.30;1.90;;;17.80;92.00;;;;;;4939611;29;20066;-86
2023/07/18 01:47:56;;;;;;;7.90;2.25;;;17.80;92.00;;;;;;4937825;29;20410;-86
2023/07/18 01:50:21;;;;;;;4.88;2.00;;;17.80;92.00;;;;;;4939855;29;20114;-86
2023/07/18 01:52:50;;;;;;;6.85;2.03;;;17.70;92.00;;;;;;4940687;29;20047;-86
2023/07/18 01:55:16;;;;;;;7.03;2.35;;;17.80;92.10;;;;;;4940777;29;20027;-86
2023/07/18 01:57:44;;;;;;;3.88;1.63;;;17.70;91.90;;;;;;4958213;29;20035;-86
2023/07/18 02:00:11;;;;;;;5.47;2.35;;;17.70;91.80;;;;;;4940355;29;20035;-86
2023/07/18 02:02:38;;;;;;;3.72;1.83;;;17.70;91.80;;;;;;4940249;29;20027;-86
2023/07/18 02:05:04;;;;;;;4.45;1.95;;;17.70;91.80;;;;;;4957595;29;20058;-86
2023/07/18 02:07:30;;;;;;;3.72;2.00;;;17.70;91.80;;;;;;4938044;29;20039;-86
2023/07/18 02:09:57;;;;;;;3.85;1.75;;;17.60;91.80;;;;;;4940219;29;20043;-86
2023/07/18 02:12:23;;;;;;;4.28;1.88;;;17.60;91.80;;;;;;4939950;29;20023;-86
2023/07/18 02:14:49;;;;;;;4.13;2.00;;;17.50;91.90;;;;;;4939169;29;20125;-86
2023/07/18 02:17:14;;;;;;;3.38;1.90;;;17.50;92.00;;;;;;4956043;29;20030;-86
2023/07/18 02:19:40;;;;;;;3.75;2.00;;;17.40;92.10;;;;;;4940131;29;20028;-86
2023/07/18 02:22:06;;;;;;;7.63;2.20;;;17.40;92.30;;;;;;4940010;29;20027;-86
2023/07/18 02:24:32;;;;;;;4.85;2.13;;;17.40;92.40;;;;;;4940024;29;20016;-86
2023/07/18 02:26:58;;;;;;;6.63;2.50;;;17.30;92.40;;;;;;4940175;29;20031;-86
2023/07/18 02:29:25;;;;;;;6.00;1.95;;;17.30;92.50;;;;;;4940624;29;20035;-86
2023/07/18 02:31:50;;;;;;;4.10;1.90;;;17.30;92.50;;;;;;4958988;29;20372;-86
2023/07/18 02:34:17;;;;;;;4.30;2.00;;;17.30;92.50;;;;;;4959790;29;20090;-86
2023/07/18 02:36:43;;;;;;;5.35;1.98;;;17.30;92.50;;;;;;4961049;29;20487;-86
2023/07/18 02:39:10;;;;;;;3.60;1.80;;;17.30;92.60;;;;;;4961158;29;20058;-86
2023/07/18 02:41:39;;;;;;;5.82;2.08;;;17.20;92.60;;;;;;4936213;29;20031;-86
2023/07/18 02:44:05;;;;;;;4.28;1.90;;;17.20;92.50;;;;;;4924216;29;20050;-86
2023/07/18 02:46:31;;;;;;;5.05;1.90;;;17.20;92.60;;;;;;4924639;29;20035;-86
2023/07/18 02:48:56;;;;;;;5.05;1.80;;;17.20;92.70;;;;;;4924731;29;20035;-86
2023/07/18 02:51:22;;;;;;;9.57;1.95;;;17.20;92.80;;;;;;4924549;29;20023;-86
2023/07/18 02:53:51;;;;;;;4.47;1.90;;;17.10;92.70;;;;;;4924675;29;20119;-86
2023/07/18 02:56:17;;;;;;;6.30;2.15;;;17.10;92.70;;;;;;4924100;29;20185;-85
2023/07/18 02:58:43;;;;;;;3.95;1.80;;;17.00;92.60;;;;;;4923226;29;20027;-85
2023/07/18 03:01:09;;;;;;;3.42;2.05;;;17.00;92.60;;;;;;4925331;29;20173;-85
2023/07/18 03:03:38;;;;;;;4.97;2.28;;;17.00;92.70;;;;;;4923579;29;20019;-86
2023/07/18 03:06:04;;;;;;;4.22;2.22;;;17.00;92.90;;;;;;4944453;29;20020;-86
2023/07/18 03:08:32;;;;;;;3.95;2.05;;;17.00;93.00;;;;;;4939297;29;20027;-85
2023/07/18 03:11:01;;;;;;;3.13;1.73;;;16.90;93.10;;;;;;4939179;29;20119;-86
2023/07/18 03:13:27;;;;;;;3.65;2.00;;;16.90;93.20;;;;;;4932426;29;20115;-86
2023/07/18 03:15:55;;;;;;;5.13;1.75;;;16.90;93.30;;;;;;4940752;28;20039;-86
2023/07/18 03:18:21;;;;;;;5.15;2.17;;;16.90;93.20;;;;;;4957822;29;20026;-86
2023/07/18 03:20:47;;;;;;;4.28;2.03;;;16.80;93.30;;;;;;4960156;28;20035;-86
2023/07/18 03:23:13;;;;;;;6.22;2.03;;;16.80;93.30;;;;;;4946180;28;20189;-87
2023/07/18 03:25:39;;;;;;;4.65;1.85;;;16.80;93.30;;;;;;4933656;28;20098;-86
2023/07/18 03:28:04;;;;;;;5.50;2.25;;;16.80;93.30;;;;;;4939471;29;20031;-86
2023/07/18 03:30:30;;;;;;;4.05;1.95;;;16.80;93.30;;;;;;4926980;29;20028;-86
2023/07/18 03:32:56;;;;;;;3.38;2.00;;;16.80;93.30;;;;;;4939325;29;20036;-86
2023/07/18 03:35:22;;;;;;;4.60;1.95;;;16.70;93.30;;;;;;4940944;28;20082;-86
2023/07/18 03:37:50;;;;;;;4.45;2.20;;;16.80;93.30;;;;;;4940718;29;20023;-86
2023/07/18 03:40:16;;;;;;;4.50;1.90;;;16.70;93.40;;;;;;4936340;29;20034;-86
2023/07/18 03:42:44;;;;;;;5.55;2.20;;;16.70;93.40;;;;;;4943285;29;20031;-86
2023/07/18 03:45:12;;;;;;;5.25;2.42;;;16.70;93.50;;;;;;4942794;29;20027;-86
2023/07/18 03:47:41;;;;;;;4.55;2.00;;;16.60;93.60;;;;;;4943530;29;20463;-86
2023/07/18 03:50:09;;;;;;;6.20;2.28;;;16.60;93.70;;;;;;4960021;29;20043;-87
2023/07/18 03:52:35;;;;;;;5.00;2.22;;;16.60;93.80;;;;;;4960237;29;20043;-86
2023/07/18 03:55:03;;;;;;;6.75;2.50;;;16.60;93.90;;;;;;4942528;29;20487;-85
2023/07/18 03:57:30;;;;;;;3.60;1.83;;;16.60;93.90;;;;;;4959366;29;20070;-86
2023/07/18 03:59:56;;;;;;;3.85;1.90;;;16.60;93.90;;;;;;4942297;29;20036;-86
2023/07/18 04:02:21;;;;;;;3.08;1.80;;;16.60;94.00;;;;;;4944348;29;20086;-86
2023/07/18 04:04:47;;;;;;;3.42;1.80;;;16.50;94.00;;;;;;4943550;29;20035;-86
2023/07/18 04:07:12;;;;;;;5.93;2.22;;;16.50;94.10;;;;;;4940144;29;20035;-87
2023/07/18 04:09:38;;;;;;;5.88;2.10;;;16.50;94.10;;;;;;4923831;29;20032;-86
2023/07/18 04:12:05;;;;;;;4.45;1.70;;;16.50;94.10;;;;;;4923665;29;20028;-86
2023/07/18 04:14:31;;;;;;;6.45;1.90;;;16.50;94.10;;;;;;4923375;29;20479;-86
2023/07/18 04:16:57;;;;;;;3.65;2.10;;;16.50;94.20;;;;;;4923283;29;20032;-86
2023/07/18 04:19:22;;;;;;;3.25;1.83;;;16.50;94.20;;;;;;4924506;29;20036;-85
2023/07/18 04:21:48;;;;;;;4.82;1.80;;;16.50;94.10;;;;;;4923448;29;20348;-85
2023/07/18 04:24:14;;;;;;;3.92;2.10;;;16.50;94.10;;;;;;4943362;29;20015;-86
2023/07/18 04:26:39;;;;;;;4.90;1.98;;;16.50;94.40;;;;;;4933955;29;20380;-85
2023/07/18 04:29:05;;;;;;;6.25;2.17;;;16.50;94.10;;;;;;4926199;29;20019;-86
2023/07/18 04:31:31;;;;;;;5.63;2.08;;;16.50;94.10;;;;;;4941569;29;20026;-86
2023/07/18 04:33:57;;;;;;;3.13;1.88;;;16.50;94.00;;;;;;4938459;29;20024;-86
2023/07/18 04:36:24;;;;;;;6.45;2.22;;;16.60;94.00;;;;;;4925394;29;20083;-86
2023/07/18 04:38:49;;;;;;;5.13;2.22;;;16.60;94.00;;;;;;4922361;29;20059;-85
2023/07/18 04:41:15;;;;;;;6.35;2.28;;;16.60;93.90;;;;;;4938471;29;20027;-86
2023/07/18 04:43:41;;;;;;;6.72;1.90;;;16.70;93.90;;;;;;4943395;29;20058;-86
2023/07/18 04:46:08;;;;;;;8.57;2.08;;;16.70;93.90;;;;;;4939563;29;20020;-86
2023/07/18 04:48:34;;;;;;;3.80;1.88;;;16.70;93.90;;;;;;4933691;29;20028;-86
2023/07/18 04:51:01;;;;;;;3.60;2.03;;;16.80;93.90;;;;;;4932911;29;20045;-86
2023/07/18 04:53:29;;;;;;;4.38;2.00;;;16.80;93.70;;;;;;4956161;29;20035;-86
2023/07/18 04:55:57;;;;;;;4.75;1.98;;;16.90;94.00;;;;;;4976055;28;20041;-86
2023/07/18 04:58:24;;;;;;;8.25;1.65;;;16.90;93.70;;;;;;4960684;29;20616;-86
2023/07/18 05:00:51;;;;;;;6.70;1.98;;;17.00;93.60;;;;;;4961366;29;20448;-86
2023/07/18 05:03:17;;;;;;;3.83;2.20;;;17.10;93.60;;;;;;4940304;29;20028;-86
2023/07/18 05:05:43;;;;;;;3.78;1.60;;;17.20;93.40;;;;;;4925645;29;20052;-86
2023/07/18 05:08:09;;;;;;;5.68;2.15;;;17.30;93.40;;;;;;4951533;29;20055;-86
2023/07/18 05:10:35;;;;;;;4.32;1.88;;;17.40;93.20;;;;;;4935829;29;20042;-86
2023/07/18 05:13:00;;;;;;;4.47;1.80;;;17.50;93.20;;;;;;4934720;29;20003;-86
2023/07/18 05:15:26;;;;;;;5.90;2.10;;;17.60;92.90;;;;;;4936850;29;20034;-87
2023/07/18 05:17:52;;;;;;;6.20;2.03;;;17.80;92.80;;;;;;4925031;29;20054;-86
2023/07/18 05:20:18;;;;;;;7.25;2.53;;;17.90;92.60;;;;;;4942234;29;20047;-87
2023/07/18 05:22:45;;;;;;;6.03;2.55;;;18.00;92.40;;;;;;4928331;29;20091;-87
2023/07/18 05:25:12;;;;;;;4.20;1.80;;;18.10;92.40;;;;;;4942206;29;20464;-87
2023/07/18 05:27:39;;;;;;;4.28;1.80;;;18.20;92.20;;;;;;4947299;29;20020;-74
2023/07/18 05:30:10;;;;;;;4.45;1.60;;;18.20;92.00;;;;;;4937723;29;20059;-74
2023/07/18 05:32:35;;;;;;;4.00;1.80;;;18.40;92.00;;;;;;4939605;29;20028;-74
2023/07/18 05:35:01;;;;;;;3.67;1.98;;;18.40;91.60;;;;;;4940303;29;20032;-74
2023/07/18 05:37:28;;;;;;;5.82;1.70;;;18.50;91.60;;;;;;4921422;29;20031;-74
2023/07/18 05:39:54;;;;;;;5.45;1.70;;;18.60;91.30;;;;;;4938177;29;20035;-74
2023/07/18 05:42:20;;;;;;;5.25;1.80;;;18.70;91.20;;;;;;4943666;29;20047;-74
2023/07/18 05:44:45;;;;;;;6.80;2.03;;;18.80;91.00;;;;;;4957548;29;20070;-74
2023/07/18 05:47:11;;;;;;;6.32;1.92;;;18.90;91.00;;;;;;4950445;29;20035;-74
2023/07/18 05:49:37;;;;;;;3.30;1.80;;;19.00;90.80;;;;;;4952196;29;20037;-74
2023/07/18 05:52:03;;;;;;;5.40;2.00;;;19.00;90.50;;;;;;4958115;29;20449;-75
2023/07/18 05:54:30;;;;;;;3.55;2.08;;;19.10;90.40;;;;;;4956151;29;20023;-73
2023/07/18 05:56:58;;;;;;;6.68;2.70;;;19.10;90.40;;;;;;4958055;29;20020;-74
2023/07/18 05:59:25;;;;;;;6.10;2.53;;;19.20;90.60;;;;;;4957441;28;20036;-74
2023/07/18 06:01:59;;;;;;;5.68;2.65;;;19.30;91.00;;;;;;4959549;29;20023;-87
2023/07/18 06:04:27;;;;;;;10.25;3.25;;;19.30;91.00;;;;;;4943897;29;20032;-87
2023/07/18 06:06:54;;;;;;;5.90;3.22;;;19.40;91.20;;;;;;4952968;28;20070;-87
2023/07/18 06:09:20;;;;;;;7.05;2.50;;;19.50;90.90;;;;;;4984005;28;20034;-86
2023/07/18 06:11:48;;;;;;;6.07;2.50;;;19.60;90.90;;;;;;4983403;28;20076;-86
2023/07/18 06:14:14;;;;;;;4.15;2.30;;;19.70;90.70;;;;;;5000833;28;20046;-86
2023/07/18 06:16:40;;;;;;;5.63;2.72;;;19.70;90.70;;;;;;4969214;28;20027;-86
2023/07/18 06:19:06;;;;;;;8.60;2.10;;;19.80;90.30;;;;;;4986691;28;20031;-86
2023/07/18 06:21:31;;;;;;;3.38;1.80;;;19.90;89.30;;;;;;4969330;28;20030;-86
2023/07/18 06:23:57;;;;;;;6.97;1.80;;;19.90;88.50;;;;;;4968762;28;20031;-86
2023/07/18 06:26:26;;;;;;;5.25;1.73;;;19.90;88.30;;;;;;4985146;28;20395;-86
2023/07/18 06:28:52;;;;;;;4.15;1.90;;;19.90;87.90;;;;;;4970521;28;20029;-86
2023/07/18 06:31:18;;;;;;;5.10;1.73;;;19.90;87.60;;;;;;4986131;28;20022;-86
2023/07/18 06:33:45;;;;;;;7.28;2.03;;;20.00;87.40;;;;;;4968958;28;20517;-87
2023/07/18 06:36:13;;;;;;;15.07;2.45;;;20.10;87.70;;;;;;4969496;28;20109;-86
2023/07/18 06:38:50;;;;;;;5.82;2.53;;;20.20;88.10;;;;;;4968492;28;20034;-87
2023/07/18 06:41:16;;;;;;;3.78;2.50;;;20.30;89.10;;;;;;4985014;28;20051;-86
2023/07/18 06:43:45;;;;;;;6.20;2.58;;;20.30;89.20;;;;;;4967407;28;20058;-86
2023/07/18 06:46:13;;;;;;;5.70;2.35;;;20.40;89.40;;;;;;4985340;28;20022;-86
2023/07/18 06:48:39;;;;;;;5.53;2.53;;;20.40;89.20;;;;;;4971409;28;20011;-87
2023/07/18 06:51:06;;;;;;;6.63;3.03;;;20.40;89.20;;;;;;4969551;28;20023;-86
2023/07/18 06:53:36;;;;;;;5.45;2.25;;;20.40;89.00;;;;;;4968038;28;20042;-86
2023/07/18 06:56:01;;;;;;;6.32;2.45;;;20.50;89.20;;;;;;4968806;28;20218;-87
2023/07/18 06:58:33;;;;;;;5.53;2.50;;;20.50;89.70;;;;;;4967972;28;20089;-86
2023/07/18 07:01:01;;;;;;;10.43;3.25;;;20.60;90.00;;;;;;4970220;28;20029;-87
2023/07/18 07:03:34;;;;;;;9.70;3.63;;;20.60;90.10;;;;;;4968777;28;20414;-86
2023/07/18 07:06:00;;;;;;;7.90;3.38;;;20.60;90.20;;;;;;4984619;28;20089;-87
2023/07/18 07:08:26;;;;;;;9.02;3.10;;;20.60;90.30;;;;;;4984440;28;20039;-86
2023/07/18 07:11:02;;;;;;;12.38;3.45;;;20.70;90.20;;;;;;4968257;28;20118;-87
2023/07/18 07:13:30;;;;;;;6.53;3.17;;;20.70;90.20;;;;;;4967791;28;20031;-87
2023/07/18 07:16:01;;;;;;;9.48;2.83;;;20.70;90.30;;;;;;4967123;28;20031;-87
2023/07/18 07:18:36;;;;;;;5.80;3.08;;;20.70;90.40;;;;;;4967542;28;20507;-86
2023/07/18 07:21:06;;;;;;;9.02;3.63;;;20.70;90.50;;;;;;4968178;28;20110;-86
2023/07/18 07:23:36;;;;;;;5.82;2.50;;;20.80;90.50;;;;;;4967349;28;20042;-87
2023/07/18 07:26:11;;;;;;;4.45;2.33;;;20.90;90.40;;;;;;4951987;28;20039;-87
2023/07/18 07:28:40;;;;;;;6.53;2.63;;;20.90;89.80;;;;;;4964642;29;20027;-87
2023/07/18 07:31:05;;;;;;;4.25;1.88;;;21.00;88.40;;;;;;4964154;28;20031;-86
2023/07/18 07:33:31;;;;;;;7.05;2.22;;;21.00;87.30;;;;;;4984018;28;20050;-86
2023/07/18 07:35:59;;;;;;;5.68;2.33;;;20.90;87.40;;;;;;4986296;28;20034;-85
2023/07/18 07:41:17;;;;;;;4.55;1.98;;;20.90;86.80;;;;;;4972174;28;20049;-84
2023/07/18 07:43:46;;;;;;;3.78;1.67;;;20.90;86.30;;;;;;4971636;28;20143;-84
2023/07/18 07:46:12;;;;;;;3.55;1.83;;;20.90;86.40;;;;;;4984383;28;20098;-84
2023/07/18 07:48:38;;;;;;;6.28;2.53;;;20.90;86.30;;;;;;4981671;28;20050;-85
2023/07/18 07:51:04;;;;;;;5.85;2.10;;;21.00;86.70;;;;;;4969375;28;20422;-85
2023/07/18 07:53:36;;;;;;;7.55;2.20;;;21.00;87.20;;;;;;4969967;28;20062;-87
2023/07/18 07:56:05;;;;;;;4.55;2.30;;;21.10;88.20;;;;;;4970246;28;20066;-86
2023/07/18 07:58:33;;;;;;;10.82;2.42;;;21.10;88.40;;;;;;4969783;28;20099;-87
2023/07/18 08:00:59;;;;;;;5.03;1.85;;;21.20;88.50;;;;;;4971629;28;20058;-84
2023/07/18 08:03:25;;;;;;;3.53;1.88;;;21.30;88.90;;;;;;4982620;28;20058;-85
2023/07/18 08:05:50;;;;;;;3.08;1.92;;;21.30;88.70;;;;;;4982458;28;20023;-85
2023/07/18 08:08:17;;;;;;;6.60;2.33;;;21.40;88.90;;;;;;4983967;28;20106;-84
2023/07/18 08:10:43;;;;;;;5.15;2.15;;;21.40;89.30;;;;;;4983647;28;20106;-83
2023/07/18 08:13:09;;;;;;;4.60;2.03;;;21.50;89.80;;;;;;4985779;28;20057;-84
2023/07/18 08:15:35;;;;;;;5.15;2.15;;;21.50;89.60;;;;;;4984752;28;20027;-84
2023/07/18 08:18:01;;;;;;;2.75;1.77;;;21.50;89.50;;;;;;4981810;28;20158;-84
2023/07/18 08:20:27;;;;;;;5.07;2.08;;;21.60;89.10;;;;;;4970811;28;20039;-83
2023/07/18 08:22:54;;;;;;;4.10;1.90;;;21.70;89.00;;;;;;4990821;28;20452;-82
2023/07/18 08:25:20;;;;;;;4.25;1.70;;;21.70;88.60;;;;;;4989569;28;20023;-83
2023/07/18 08:27:45;;;;;;;5.90;2.13;;;21.80;88.00;;;;;;4972336;28;20042;-83
2023/07/18 08:30:15;;;;;;;6.10;2.08;;;21.90;88.10;;;;;;4989356;28;20066;-89
2023/07/18 08:32:45;;;;;;;5.28;2.05;;;22.00;87.50;;;;;;4973332;28;20042;-90
2023/07/18 08:35:11;;;;;;;4.88;2.10;;;22.10;87.50;;;;;;4953690;28;20038;-88
2023/07/18 08:38:05;;;;;;;;;;;;;;;;;;;;;
2023/07/18 08:40:49;;;;;;;5.28;2.28;;;22.30;87.10;;;;;;4977284;28;20095;-88
2023/07/18 08:43:27;;;;;;;4.78;2.00;;;22.30;86.80;;;;;;4953428;28;20035;-89
2023/07/18 08:46:04;;;;;;;6.47;1.80;;;22.30;86.30;;;;;;4970865;28;20034;-89
2023/07/18 08:49:38;;;;;;;;;;;;;;;;;;;;;
2023/07/18 08:54:28;;;;;;;2.85;1.98;;;22.60;85.10;;;;;;5005352;23;20296;-73
2023/07/18 08:56:56;;;;;;;7.40;2.17;;;22.60;85.20;;;;;;4962470;28;20030;-72
2023/07/18 08:59:22;;;;;;;7.53;2.17;;;22.70;85.00;;;;;;4968243;28;20453;-72
2023/07/18 09:01:50;;;;;;;4.88;1.90;;;22.80;84.60;;;;;;4969195;28;20027;-73
2023/07/18 09:04:16;;;;;;;4.78;2.17;;;22.90;85.00;;;;;;4975813;28;20030;-73
2023/07/18 09:06:54;;;;;;;4.47;1.80;;;23.00;85.00;;;;;;5005399;23;20190;-76
2023/07/18 09:09:23;;;;;;;4.10;1.98;;;23.10;83.70;;;;;;5014195;28;20156;-76
2023/07/18 09:11:57;;;;;;;6.22;2.15;;;23.10;84.00;;;;;;5011969;28;20030;-77
2023/07/18 09:14:28;;;;;;;9.88;2.22;;;23.10;83.70;;;;;;4995497;28;20034;-75
2023/07/18 09:16:54;;;;;;;6.13;2.20;;;23.20;83.70;;;;;;4997546;28;20041;-75
2023/07/18 09:19:37;;;;;;;4.13;1.80;;;23.20;83.60;;;;;;4993406;28;20034;-76
2023/07/18 09:22:05;;;;;;;6.20;2.25;;;23.30;83.10;;;;;;4995184;28;20022;-76
2023/07/18 09:24:31;;;;;;;6.20;1.80;;;23.40;83.40;;;;;;4993275;28;20430;-76
2023/07/18 09:26:57;;;;;;;6.25;2.70;;;23.40;83.30;;;;;;4991662;28;20053;-76
2023/07/18 09:29:25;;;;;;;4.18;1.88;;;23.50;82.70;;;;;;4993947;28;20026;-76
2023/07/18 09:31:51;;;;;;;8.55;2.08;;;23.50;83.20;;;;;;4993579;28;20369;-76
2023/07/18 09:34:18;;;;;;;3.97;2.00;;;23.50;82.50;;;;;;4997364;28;20526;-76
2023/07/18 09:37:01;;;;;;;6.40;2.35;;;23.60;82.70;;;;;;4992550;28;20026;-76
2023/07/18 09:39:27;;;;;;;5.43;2.50;;;23.70;82.20;;;;;;4987216;28;20034;-76
2023/07/18 09:41:54;;;;;;;4.45;2.50;;;23.80;82.00;;;;;;4988892;28;20030;-75
2023/07/18 09:44:22;;;;;;;5.20;1.92;;;23.80;81.70;;;;;;4992260;28;20041;-77
2023/07/18 09:46:50;;;;;;;4.32;2.50;;;24.00;81.50;;;;;;4995185;28;20018;-76
2023/07/18 09:49:17;;;;;;;3.88;2.22;;;24.00;81.60;;;;;;4999979;28;20499;-77
2023/07/18 09:52:06;;;;;;;6.95;2.15;;;24.10;81.10;;;;;;4995522;28;20027;-76
2023/07/18 09:54:33;;;;;;;6.07;2.00;;;24.20;82.30;;;;;;4986767;28;20583;-76
2023/07/18 09:57:09;;;;;;;4.20;2.65;;;24.20;81.20;;;;;;4989601;28;20113;-76
2023/07/18 09:59:39;;;;;;;3.10;1.90;;;24.40;79.80;;;;;;4980114;28;20028;-77
2023/07/18 10:02:06;;;;;;;2.90;1.98;;;24.40;80.40;;;;;;4991072;28;20030;-75
2023/07/18 10:04:33;;;;;;;3.20;2.25;;;24.60;79.70;;;;;;5002133;28;20062;-76
2023/07/18 10:07:00;;;;;;;3.88;1.90;;;24.70;79.60;;;;;;4991561;28;20397;-78
2023/07/18 10:09:29;;;;;;;6.43;2.58;;;24.80;79.50;;;;;;4996296;28;20026;-78
2023/07/18 10:11:58;;;;;;;2.72;2.05;;;24.90;79.40;;;;;;4994803;28;20072;-75
2023/07/18 10:14:30;;;;;;;4.20;1.88;;;25.00;79.40;;;;;;4996114;28;20145;-77
2023/07/18 10:17:05;;;;;;;5.70;2.25;;;25.00;78.80;;;;;;4994052;28;20026;-76
2023/07/18 10:19:46;;;;;;;6.75;2.40;;;25.00;78.30;;;;;;4994636;28;20034;-77
2023/07/18 10:22:12;;;;;;;6.53;2.50;;;25.00;77.90;;;;;;4988090;28;20030;-77
2023/07/18 10:24:49;;;;;;;3.90;1.98;;;25.00;78.00;;;;;;4975766;28;20027;-77
2023/07/18 10:27:15;;;;;;;4.22;2.38;;;24.90;77.10;;;;;;4989747;28;20078;-77
2023/07/18 10:30:00;;;;;;;7.85;2.80;;;24.80;77.40;;;;;;5010185;28;20026;-78
2023/07/18 10:32:31;;;;;;;5.07;2.63;;;24.90;77.70;;;;;;4992038;28;20432;-77
2023/07/18 10:34:57;;;;;;;6.10;2.72;;;24.90;77.50;;;;;;4993208;28;20038;-77
2023/07/18 10:37:26;;;;;;;5.70;2.28;;;25.00;77.90;;;;;;4993559;28;20033;-77
2023/07/18 10:39:53;;;;;;;4.18;2.42;;;25.00;78.40;;;;;;4993445;28;20026;-77
2023/07/18 10:42:21;;;;;;;3.80;2.10;;;25.20;78.50;;;;;;4994082;28;20022;-78
2023/07/18 10:44:58;;;;;;;5.43;2.58;;;25.30;78.30;;;;;;4994434;28;20057;-77
2023/07/18 10:47:24;;;;;;;4.20;2.28;;;25.30;78.40;;;;;;4991345;28;20225;-77
2023/07/18 10:49:50;;;;;;;6.80;2.72;;;25.50;78.40;;;;;;4991936;28;20026;-76
2023/07/18 10:52:18;;;;;;;5.55;2.53;;;25.60;78.10;;;;;;4994686;28;20457;-77
2023/07/18 10:54:56;;;;;;;5.88;2.28;;;25.60;78.40;;;;;;4997203;28;20033;-78
2023/07/18 10:57:33;;;;;;;4.43;2.25;;;25.80;77.70;;;;;;5004903;28;20495;-77
2023/07/18 10:59:59;;;;;;;5.32;3.13;;;25.90;77.20;;;;;;4993061;28;20034;-77
2023/07/18 11:02:27;;;;;;;4.53;2.60;;;26.00;77.00;;;;;;4996317;28;20535;-77
2023/07/18 11:04:53;;;;;;;4.57;2.50;;;26.00;76.20;;;;;;4994501;28;20500;-76
2023/07/18 11:07:33;;;;;;;5.20;2.83;;;26.00;76.30;;;;;;4994714;28;20030;-76
2023/07/18 11:09:59;;;;;;;6.78;2.42;;;26.10;75.60;;;;;;4994544;28;20062;-77
2023/07/18 11:12:25;;;;;;;8.88;2.70;;;26.10;75.70;;;;;;5002138;28;20038;-76
2023/07/18 11:14:51;;;;;;;5.28;2.45;;;26.10;75.90;;;;;;4990703;28;20034;-76
2023/07/18 11:17:19;;;;;;;6.85;2.85;;;26.10;76.20;;;;;;4996126;28;20026;-76
2023/07/18 11:19:46;;;;;;;7.72;2.50;;;26.20;76.50;;;;;;4995100;28;20565;-78
2023/07/18 11:22:14;;;;;;;4.88;2.70;;;26.20;76.50;;;;;;4995603;28;20038;-78
2023/07/18 11:24:42;;;;;;;5.90;2.63;;;26.20;76.50;;;;;;4991204;28;20023;-77
2023/07/18 11:27:23;;;;;;;4.80;2.33;;;26.10;76.60;;;;;;4992143;28;20314;-77
2023/07/18 11:29:59;;;;;;;5.57;3.05;;;26.10;76.90;;;;;;4989971;28;20028;-77
2023/07/18 11:32:40;;;;;;;3.63;1.95;;;26.00;77.10;;;;;;4997432;28;20033;-76
2023/07/18 11:35:18;;;;;;;3.63;1.98;;;25.90;77.30;;;;;;4992799;28;20030;-76
2023/07/18 11:37:46;;;;;;;7.10;1.95;;;25.80;77.40;;;;;;4992034;28;20389;-77
2023/07/18 11:40:21;;;;;;;3.10;2.30;;;25.70;77.70;;;;;;4997211;28;20030;-76
2023/07/18 11:42:55;;;;;;;6.57;2.65;;;25.60;78.40;;;;;;4991322;28;20035;-75
2023/07/18 11:45:22;;;;;;;6.68;2.90;;;25.50;79.40;;;;;;4993707;28;20417;-77
2023/07/18 11:47:53;;;;;;;5.40;2.50;;;25.40;82.10;;;;;;4996114;28;20065;-77
2023/07/18 11:50:19;;;;;;;9.98;2.95;;;25.30;83.40;;;;;;4991614;28;20118;-77
2023/07/18 11:52:50;;;;;;;5.38;2.63;;;25.20;85.40;;;;;;4994347;28;20386;-78
2023/07/18 11:55:18;;;;;;;6.47;2.95;;;25.00;87.20;;;;;;4991005;28;20438;-75
2023/07/18 11:57:44;;;;;;;6.28;2.65;;;24.90;88.70;;;;;;4993055;28;20461;-77
2023/07/18 12:00:12;;;;;;;6.15;2.45;;;24.80;89.40;;;;;;4992907;28;20473;-77
2023/07/18 12:02:37;;;;;;;5.45;2.70;;;24.70;89.70;;;;;;4992634;28;20022;-76
2023/07/18 12:05:05;;;;;;;5.53;2.95;;;24.60;90.00;;;;;;4995690;28;20035;-77
2023/07/18 12:07:31;;;;;;;12.02;3.30;;;24.60;89.60;;;;;;4995086;28;20030;-77
2023/07/18 12:09:57;;;;;;;4.85;2.90;;;24.60;90.00;;;;;;4997507;28;20030;-78
2023/07/18 12:12:23;;;;;;;7.47;3.30;;;24.60;89.70;;;;;;5002624;28;20116;-79
2023/07/18 12:14:50;;;;;;;4.93;3.08;;;24.50;89.40;;;;;;4996937;28;20117;-77
2023/07/18 12:17:16;;;;;;;4.65;2.70;;;24.50;89.20;;;;;;4999292;28;20017;-79
2023/07/18 12:19:42;;;;;;;6.32;3.33;;;24.50;89.50;;;;;;4994763;28;20075;-78
2023/07/18 12:22:08;;;;;;;5.57;2.67;;;24.60;89.40;;;;;;4993340;28;20109;-78
2023/07/18 12:24:33;;;;;;;7.20;3.15;;;24.60;88.70;;;;;;4999389;28;20054;-77
2023/07/18 12:26:59;;;;;;;6.57;2.92;;;24.60;88.20;;;;;;5008313;28;20026;-77
2023/07/18 12:29:25;;;;;;;7.80;3.47;;;24.60;87.70;;;;;;5000309;28;20057;-76
2023/07/18 12:31:51;;;;;;;5.78;2.47;;;24.60;87.60;;;;;;4990833;28;20456;-76
2023/07/18 12:34:21;;;;;;;7.78;3.47;;;24.60;86.90;;;;;;4991404;28;20035;-77
2023/07/18 12:36:47;;;;;;;5.93;3.17;;;24.70;86.40;;;;;;4989608;28;20026;-77
2023/07/18 12:39:14;;;;;;;5.63;2.80;;;24.70;86.80;;;;;;4992427;28;20187;-78
2023/07/18 12:41:39;;;;;;;4.78;3.15;;;24.70;86.60;;;;;;4986299;28;20031;-75
2023/07/18 12:44:05;;;;;;;5.18;3.03;;;24.70;86.60;;;;;;4989318;28;20029;-77
2023/07/18 12:46:31;;;;;;;4.88;2.70;;;24.80;85.90;;;;;;4984030;28;20084;-77
2023/07/18 12:48:57;;;;;;;8.35;3.00;;;24.90;85.70;;;;;;4992047;28;20408;-77
2023/07/18 12:51:23;;;;;;;4.38;2.72;;;25.00;85.60;;;;;;4989060;28;20034;-75
2023/07/18 12:53:49;;;;;;;6.25;3.33;;;25.10;85.50;;;;;;4983272;28;20389;-77
2023/07/18 12:56:16;;;;;;;3.17;2.53;;;25.20;85.50;;;;;;5007036;28;20388;-76